sensor_id;sensor_type;location;lat;lon;timestamp;P1;durP1;ratioP1;P2;durP2;ratioP2
10511;SDS011;5304;48.604;2.096;2024-03-08T04:24:05;39.00;;;17.00;;
10511;SDS011;5304;48.604;2.096;2024-03-08T04:26:49;37.73;;;19.30;;
10511;SDS011;5304;48.604;2.096;2024-03-08T04:29:34;36.37;;;18.47;;
10511;SDS011;5304;48.604;2.096;2024-03-08T04:32:20;32.77;;;16.27;;
10511;SDS011;5304;48.604;2.096;2024-03-08T04:35:04;35.57;;;18.07;;
10511;SDS011;5304;48.604;2.096;2024-03-08T04:37:48;36.60;;;17.63;;
10511;SDS011;5304;48.604;2.096;2024-03-08T04:40:32;40.30;;;20.47;;
10511;SDS011;5304;48.604;2.096;2024-03-08T04:43:18;34.83;;;16.53;;
10511;SDS011;5304;48.604;2.096;2024-03-08T04:46:03;43.33;;;19.77;;
10511;SDS011;5304;48.604;2.096;2024-03-08T04:48:47;36.30;;;17.57;;
10511;SDS011;5304;48.604;2.096;2024-03-08T04:51:31;37.70;;;18.73;;
10511;SDS011;5304;48.604;2.096;2024-03-08T04:54:15;37.60;;;19.20;;
10511;SDS011;5304;48.604;2.096;2024-03-08T04:57:00;37.47;;;18.33;;
10511;SDS011;5304;48.604;2.096;2024-03-08T04:59:44;39.57;;;20.27;;
10511;SDS011;5304;48.604;2.096;2024-03-08T05:02:28;39.20;;;19.63;;
10511;SDS011;5304;48.604;2.096;2024-03-08T05:05:13;41.53;;;18.67;;
10511;SDS011;5304;48.604;2.096;2024-03-08T05:07:57;43.13;;;18.93;;
10511;SDS011;5304;48.604;2.096;2024-03-08T05:10:41;42.33;;;19.70;;
10511;SDS011;5304;48.604;2.096;2024-03-08T05:13:26;41.13;;;19.20;;
10511;SDS011;5304;48.604;2.096;2024-03-08T05:16:10;40.73;;;18.93;;
10511;SDS011;5304;48.604;2.096;2024-03-08T05:18:55;43.50;;;19.87;;
10511;SDS011;5304;48.604;2.096;2024-03-08T05:21:40;43.40;;;20.83;;
10511;SDS011;5304;48.604;2.096;2024-03-08T05:24:25;34.33;;;17.90;;
10511;SDS011;5304;48.604;2.096;2024-03-08T05:27:09;37.63;;;18.63;;
10511;SDS011;5304;48.604;2.096;2024-03-08T05:29:53;40.13;;;21.07;;
10511;SDS011;5304;48.604;2.096;2024-03-08T05:32:37;37.70;;;20.00;;
10511;SDS011;5304;48.604;2.096;2024-03-08T05:35:22;42.70;;;19.13;;
10511;SDS011;5304;48.604;2.096;2024-03-08T05:38:06;37.07;;;17.93;;
10511;SDS011;5304;48.604;2.096;2024-03-08T05:40:50;38.47;;;17.93;;
10511;SDS011;5304;48.604;2.096;2024-03-08T05:43:35;41.20;;;20.30;;
10511;SDS011;5304;48.604;2.096;2024-03-08T05:46:20;38.93;;;18.63;;
10511;SDS011;5304;48.604;2.096;2024-03-08T05:49:05;40.23;;;18.93;;
10511;SDS011;5304;48.604;2.096;2024-03-08T05:51:50;38.63;;;18.33;;
10511;SDS011;5304;48.604;2.096;2024-03-08T05:54:34;37.07;;;16.97;;
10511;SDS011;5304;48.604;2.096;2024-03-08T05:57:19;38.03;;;19.73;;
10511;SDS011;5304;48.604;2.096;2024-03-08T06:00:03;41.50;;;19.50;;
10511;SDS011;5304;48.604;2.096;2024-03-08T06:02:48;41.10;;;19.37;;
10511;SDS011;5304;48.604;2.096;2024-03-08T06:05:33;37.23;;;18.57;;
10511;SDS011;5304;48.604;2.096;2024-03-08T06:08:17;40.03;;;18.43;;
10511;SDS011;5304;48.604;2.096;2024-03-08T06:11:02;39.20;;;19.40;;
10511;SDS011;5304;48.604;2.096;2024-03-08T06:13:46;39.00;;;18.17;;
10511;SDS011;5304;48.604;2.096;2024-03-08T06:16:31;41.27;;;19.23;;
10511;SDS011;5304;48.604;2.096;2024-03-08T06:19:17;35.93;;;17.77;;
10511;SDS011;5304;48.604;2.096;2024-03-08T06:22:01;39.63;;;19.40;;
10511;SDS011;5304;48.604;2.096;2024-03-08T06:24:49;38.60;;;19.03;;
10511;SDS011;5304;48.604;2.096;2024-03-08T06:27:35;43.93;;;19.80;;
10511;SDS011;5304;48.604;2.096;2024-03-08T06:30:19;36.40;;;18.60;;
10511;SDS011;5304;48.604;2.096;2024-03-08T06:33:04;37.33;;;18.93;;
10511;SDS011;5304;48.604;2.096;2024-03-08T06:35:49;39.77;;;20.97;;
10511;SDS011;5304;48.604;2.096;2024-03-08T06:38:33;41.73;;;19.47;;
10511;SDS011;5304;48.604;2.096;2024-03-08T06:41:17;42.07;;;21.40;;
10511;SDS011;5304;48.604;2.096;2024-03-08T06:44:01;39.90;;;18.57;;
10511;SDS011;5304;48.604;2.096;2024-03-08T06:46:46;39.63;;;18.60;;
10511;SDS011;5304;48.604;2.096;2024-03-08T06:49:30;35.90;;;18.33;;
10511;SDS011;5304;48.604;2.096;2024-03-08T06:52:15;38.77;;;19.30;;
10511;SDS011;5304;48.604;2.096;2024-03-08T06:55:00;37.40;;;19.20;;
10511;SDS011;5304;48.604;2.096;2024-03-08T06:57:45;34.13;;;17.60;;
10511;SDS011;5304;48.604;2.096;2024-03-08T07:00:29;36.23;;;18.70;;
10511;SDS011;5304;48.604;2.096;2024-03-08T07:03:14;42.70;;;19.63;;
10511;SDS011;5304;48.604;2.096;2024-03-08T07:06:01;41.87;;;18.07;;
10511;SDS011;5304;48.604;2.096;2024-03-08T07:08:46;40.03;;;19.50;;
10511;SDS011;5304;48.604;2.096;2024-03-08T07:11:30;36.57;;;18.80;;
10511;SDS011;5304;48.604;2.096;2024-03-08T07:14:15;37.27;;;18.67;;
10511;SDS011;5304;48.604;2.096;2024-03-08T07:16:59;37.50;;;18.67;;
10511;SDS011;5304;48.604;2.096;2024-03-08T07:19:43;33.53;;;18.53;;
10511;SDS011;5304;48.604;2.096;2024-03-08T07:22:28;37.17;;;18.07;;
10511;SDS011;5304;48.604;2.096;2024-03-08T07:25:20;44.07;;;20.47;;
10511;SDS011;5304;48.604;2.096;2024-03-08T07:28:04;34.10;;;18.30;;
10511;SDS011;5304;48.604;2.096;2024-03-08T07:30:50;36.27;;;18.70;;
10511;SDS011;5304;48.604;2.096;2024-03-08T07:33:45;36.17;;;17.53;;
10511;SDS011;5304;48.604;2.096;2024-03-08T07:36:29;35.90;;;16.87;;
10511;SDS011;5304;48.604;2.096;2024-03-08T07:39:13;36.60;;;17.87;;
10511;SDS011;5304;48.604;2.096;2024-03-08T07:41:58;34.53;;;18.27;;
10511;SDS011;5304;48.604;2.096;2024-03-08T07:44:42;31.93;;;16.40;;
10511;SDS011;5304;48.604;2.096;2024-03-08T07:47:26;33.50;;;17.53;;
10511;SDS011;5304;48.604;2.096;2024-03-08T07:50:11;34.37;;;17.50;;
10511;SDS011;5304;48.604;2.096;2024-03-08T07:53:00;27.80;;;14.67;;
10511;SDS011;5304;48.604;2.096;2024-03-08T07:55:46;41.83;;;18.87;;
10511;SDS011;5304;48.604;2.096;2024-03-08T07:58:31;31.13;;;16.37;;
10511;SDS011;5304;48.604;2.096;2024-03-08T08:01:19;34.03;;;17.53;;
10511;SDS011;5304;48.604;2.096;2024-03-08T08:04:03;30.80;;;15.07;;
10511;SDS011;5304;48.604;2.096;2024-03-08T08:06:48;32.03;;;17.80;;
10511;SDS011;5304;48.604;2.096;2024-03-08T08:09:34;31.70;;;16.53;;
10511;SDS011;5304;48.604;2.096;2024-03-08T08:12:18;33.80;;;17.67;;
10511;SDS011;5304;48.604;2.096;2024-03-08T08:15:02;32.43;;;18.20;;
10511;SDS011;5304;48.604;2.096;2024-03-08T08:17:47;28.87;;;16.83;;
10511;SDS011;5304;48.604;2.096;2024-03-08T08:20:31;29.50;;;15.43;;
10511;SDS011;5304;48.604;2.096;2024-03-08T08:23:15;30.20;;;17.33;;
10511;SDS011;5304;48.604;2.096;2024-03-08T08:26:00;30.30;;;16.73;;
10511;SDS011;5304;48.604;2.096;2024-03-08T08:28:46;28.00;;;16.17;;
10511;SDS011;5304;48.604;2.096;2024-03-08T08:31:31;28.67;;;16.70;;
10511;SDS011;5304;48.604;2.096;2024-03-08T08:34:16;31.47;;;15.73;;
10511;SDS011;5304;48.604;2.096;2024-03-08T08:37:03;28.73;;;16.37;;
10511;SDS011;5304;48.604;2.096;2024-03-08T08:39:47;25.97;;;16.03;;
10511;SDS011;5304;48.604;2.096;2024-03-08T08:42:32;25.93;;;16.77;;
10511;SDS011;5304;48.604;2.096;2024-03-08T08:45:16;24.87;;;14.87;;
10511;SDS011;5304;48.604;2.096;2024-03-08T08:48:01;26.87;;;15.93;;
10511;SDS011;5304;48.604;2.096;2024-03-08T08:50:45;28.20;;;16.50;;
10511;SDS011;5304;48.604;2.096;2024-03-08T08:53:30;30.07;;;17.47;;
10511;SDS011;5304;48.604;2.096;2024-03-08T08:56:14;25.20;;;16.47;;
10511;SDS011;5304;48.604;2.096;2024-03-08T08:58:59;25.60;;;15.77;;
10511;SDS011;5304;48.604;2.096;2024-03-08T09:01:43;25.77;;;15.43;;
10511;SDS011;5304;48.604;2.096;2024-03-08T09:04:30;26.30;;;16.50;;
10511;SDS011;5304;48.604;2.096;2024-03-08T09:07:15;27.53;;;16.73;;
10511;SDS011;5304;48.604;2.096;2024-03-08T09:10:01;23.37;;;15.53;;
10511;SDS011;5304;48.604;2.096;2024-03-08T09:12:46;23.77;;;15.40;;
10511;SDS011;5304;48.604;2.096;2024-03-08T09:15:31;25.30;;;15.87;;
10511;SDS011;5304;48.604;2.096;2024-03-08T09:18:15;24.47;;;15.90;;
10511;SDS011;5304;48.604;2.096;2024-03-08T09:20:59;21.87;;;14.03;;
10511;SDS011;5304;48.604;2.096;2024-03-08T09:23:43;23.57;;;15.40;;
10511;SDS011;5304;48.604;2.096;2024-03-08T09:26:28;21.03;;;14.10;;
10511;SDS011;5304;48.604;2.096;2024-03-08T09:29:12;23.90;;;15.63;;
10511;SDS011;5304;48.604;2.096;2024-03-08T09:31:57;25.93;;;15.60;;
10511;SDS011;5304;48.604;2.096;2024-03-08T09:34:41;23.40;;;15.13;;
10511;SDS011;5304;48.604;2.096;2024-03-08T09:37:25;22.90;;;14.17;;
10511;SDS011;5304;48.604;2.096;2024-03-08T09:40:09;24.60;;;14.60;;
10511;SDS011;5304;48.604;2.096;2024-03-08T09:42:58;22.70;;;13.37;;
10511;SDS011;5304;48.604;2.096;2024-03-08T09:45:43;21.40;;;14.37;;
10511;SDS011;5304;48.604;2.096;2024-03-08T09:48:33;23.00;;;13.67;;
10511;SDS011;5304;48.604;2.096;2024-03-08T09:51:18;20.80;;;13.07;;
10511;SDS011;5304;48.604;2.096;2024-03-08T09:54:11;21.53;;;14.03;;
10511;SDS011;5304;48.604;2.096;2024-03-08T09:56:56;24.23;;;14.37;;
10511;SDS011;5304;48.604;2.096;2024-03-08T09:59:40;21.03;;;12.73;;
10511;SDS011;5304;48.604;2.096;2024-03-08T10:02:30;23.70;;;14.03;;
10511;SDS011;5304;48.604;2.096;2024-03-08T10:05:15;20.20;;;11.53;;
10511;SDS011;5304;48.604;2.096;2024-03-08T10:07:59;19.47;;;11.80;;
10511;SDS011;5304;48.604;2.096;2024-03-08T10:10:43;21.17;;;11.37;;
10511;SDS011;5304;48.604;2.096;2024-03-08T10:13:28;17.70;;;11.50;;
10511;SDS011;5304;48.604;2.096;2024-03-08T10:16:15;18.33;;;11.07;;
10511;SDS011;5304;48.604;2.096;2024-03-08T10:19:00;18.27;;;10.90;;
10511;SDS011;5304;48.604;2.096;2024-03-08T10:21:48;18.63;;;12.10;;
10511;SDS011;5304;48.604;2.096;2024-03-08T10:24:37;18.40;;;11.50;;
10511;SDS011;5304;48.604;2.096;2024-03-08T10:27:22;18.23;;;11.40;;
10511;SDS011;5304;48.604;2.096;2024-03-08T10:30:14;15.73;;;10.77;;
10511;SDS011;5304;48.604;2.096;2024-03-08T10:32:59;18.27;;;10.57;;
10511;SDS011;5304;48.604;2.096;2024-03-08T10:35:45;19.67;;;10.00;;
10511;SDS011;5304;48.604;2.096;2024-03-08T10:38:30;14.77;;;9.53;;
10511;SDS011;5304;48.604;2.096;2024-03-08T10:41:18;13.13;;;9.63;;
10511;SDS011;5304;48.604;2.096;2024-03-08T10:44:10;16.27;;;9.90;;
10511;SDS011;5304;48.604;2.096;2024-03-08T10:47:14;14.67;;;9.20;;
10511;SDS011;5304;48.604;2.096;2024-03-08T10:50:19;14.37;;;9.00;;
10511;SDS011;5304;48.604;2.096;2024-03-08T10:53:08;13.27;;;9.40;;
10511;SDS011;5304;48.604;2.096;2024-03-08T10:55:57;15.10;;;8.50;;
10511;SDS011;5304;48.604;2.096;2024-03-08T10:58:42;15.13;;;9.20;;
10511;SDS011;5304;48.604;2.096;2024-03-08T11:01:28;12.60;;;8.97;;
10511;SDS011;5304;48.604;2.096;2024-03-08T11:04:13;16.23;;;10.17;;
10511;SDS011;5304;48.604;2.096;2024-03-08T11:07:00;12.90;;;8.77;;
10511;SDS011;5304;48.604;2.096;2024-03-08T11:09:50;12.47;;;8.63;;
10511;SDS011;5304;48.604;2.096;2024-03-08T11:12:37;14.33;;;9.37;;
10511;SDS011;5304;48.604;2.096;2024-03-08T11:15:21;11.47;;;7.83;;
10511;SDS011;5304;48.604;2.096;2024-03-08T11:18:08;12.23;;;8.13;;
10511;SDS011;5304;48.604;2.096;2024-03-08T11:20:54;13.57;;;7.83;;
10511;SDS011;5304;48.604;2.096;2024-03-08T11:23:38;11.57;;;7.37;;
10511;SDS011;5304;48.604;2.096;2024-03-08T11:26:27;10.50;;;7.20;;
10511;SDS011;5304;48.604;2.096;2024-03-08T11:32:21;10.23;;;6.80;;
10511;SDS011;5304;48.604;2.096;2024-03-08T11:35:06;10.63;;;6.83;;
10511;SDS011;5304;48.604;2.096;2024-03-08T11:37:52;10.73;;;6.70;;
10511;SDS011;5304;48.604;2.096;2024-03-08T11:40:37;8.93;;;6.53;;
10511;SDS011;5304;48.604;2.096;2024-03-08T11:43:23;10.43;;;6.90;;
10511;SDS011;5304;48.604;2.096;2024-03-08T11:46:08;11.50;;;7.37;;
10511;SDS011;5304;48.604;2.096;2024-03-08T11:48:54;9.40;;;6.17;;
10511;SDS011;5304;48.604;2.096;2024-03-08T11:51:41;9.87;;;7.10;;
10511;SDS011;5304;48.604;2.096;2024-03-08T11:54:27;12.47;;;7.10;;
10511;SDS011;5304;48.604;2.096;2024-03-08T11:57:11;9.37;;;6.07;;
10511;SDS011;5304;48.604;2.096;2024-03-08T11:59:56;11.27;;;7.47;;
10511;SDS011;5304;48.604;2.096;2024-03-08T12:02:40;10.17;;;6.73;;
10511;SDS011;5304;48.604;2.096;2024-03-08T12:05:25;9.60;;;6.83;;
10511;SDS011;5304;48.604;2.096;2024-03-08T12:08:10;7.93;;;6.00;;
10511;SDS011;5304;48.604;2.096;2024-03-08T12:10:56;8.83;;;6.37;;
10511;SDS011;5304;48.604;2.096;2024-03-08T12:13:43;9.37;;;6.50;;
10511;SDS011;5304;48.604;2.096;2024-03-08T12:16:30;9.47;;;6.07;;
10511;SDS011;5304;48.604;2.096;2024-03-08T12:19:14;10.13;;;6.37;;
10511;SDS011;5304;48.604;2.096;2024-03-08T12:22:06;8.67;;;6.30;;
10511;SDS011;5304;48.604;2.096;2024-03-08T12:25:03;9.63;;;6.40;;
10511;SDS011;5304;48.604;2.096;2024-03-08T12:27:54;10.93;;;6.17;;
10511;SDS011;5304;48.604;2.096;2024-03-08T12:30:46;8.07;;;5.90;;
10511;SDS011;5304;48.604;2.096;2024-03-08T12:33:52;8.97;;;6.23;;
10511;SDS011;5304;48.604;2.096;2024-03-08T12:36:37;7.33;;;5.87;;
10511;SDS011;5304;48.604;2.096;2024-03-08T12:39:22;7.60;;;5.93;;
10511;SDS011;5304;48.604;2.096;2024-03-08T12:42:10;7.00;;;5.50;;
10511;SDS011;5304;48.604;2.096;2024-03-08T12:44:54;7.37;;;5.37;;
10511;SDS011;5304;48.604;2.096;2024-03-08T12:47:38;9.33;;;5.97;;
10511;SDS011;5304;48.604;2.096;2024-03-08T12:50:25;6.33;;;5.73;;
10511;SDS011;5304;48.604;2.096;2024-03-08T12:53:10;6.70;;;5.97;;
10511;SDS011;5304;48.604;2.096;2024-03-08T12:55:55;8.07;;;5.37;;
10511;SDS011;5304;48.604;2.096;2024-03-08T12:58:40;9.20;;;5.60;;
10511;SDS011;5304;48.604;2.096;2024-03-08T13:01:24;8.47;;;5.10;;
10511;SDS011;5304;48.604;2.096;2024-03-08T13:04:09;8.13;;;4.57;;
10511;SDS011;5304;48.604;2.096;2024-03-08T13:06:55;9.77;;;5.57;;
10511;SDS011;5304;48.604;2.096;2024-03-08T13:09:39;8.50;;;4.57;;
10511;SDS011;5304;48.604;2.096;2024-03-08T13:12:23;6.80;;;4.50;;
10511;SDS011;5304;48.604;2.096;2024-03-08T13:15:08;5.73;;;3.87;;
10511;SDS011;5304;48.604;2.096;2024-03-08T13:17:55;4.90;;;3.97;;
10511;SDS011;5304;48.604;2.096;2024-03-08T13:20:41;6.97;;;4.80;;
10511;SDS011;5304;48.604;2.096;2024-03-08T13:23:27;5.77;;;4.63;;
10511;SDS011;5304;48.604;2.096;2024-03-08T13:26:13;5.30;;;3.93;;
10511;SDS011;5304;48.604;2.096;2024-03-08T13:28:59;6.43;;;4.00;;
10511;SDS011;5304;48.604;2.096;2024-03-08T13:31:43;5.20;;;3.70;;
10511;SDS011;5304;48.604;2.096;2024-03-08T13:34:27;5.13;;;3.80;;
10511;SDS011;5304;48.604;2.096;2024-03-08T13:37:13;6.03;;;4.00;;
10511;SDS011;5304;48.604;2.096;2024-03-08T13:39:59;5.50;;;3.47;;
10511;SDS011;5304;48.604;2.096;2024-03-08T13:42:43;5.47;;;3.43;;
10511;SDS011;5304;48.604;2.096;2024-03-08T13:45:28;5.47;;;3.27;;
10511;SDS011;5304;48.604;2.096;2024-03-08T13:48:12;4.60;;;3.43;;
10511;SDS011;5304;48.604;2.096;2024-03-08T13:50:57;5.70;;;3.50;;
10511;SDS011;5304;48.604;2.096;2024-03-08T13:53:41;4.67;;;3.57;;
10511;SDS011;5304;48.604;2.096;2024-03-08T13:56:28;6.83;;;3.93;;
10511;SDS011;5304;48.604;2.096;2024-03-08T13:59:15;5.33;;;3.40;;
10511;SDS011;5304;48.604;2.096;2024-03-08T14:02:00;5.10;;;3.20;;
10511;SDS011;5304;48.604;2.096;2024-03-08T14:04:47;4.37;;;3.63;;
10511;SDS011;5304;48.604;2.096;2024-03-08T14:07:33;6.90;;;3.97;;
10511;SDS011;5304;48.604;2.096;2024-03-08T14:10:17;3.43;;;3.07;;
10511;SDS011;5304;48.604;2.096;2024-03-08T14:13:06;4.10;;;3.57;;
10511;SDS011;5304;48.604;2.096;2024-03-08T14:15:50;3.53;;;2.93;;
10511;SDS011;5304;48.604;2.096;2024-03-08T14:18:36;4.80;;;3.20;;
10511;SDS011;5304;48.604;2.096;2024-03-08T14:21:20;8.13;;;3.50;;
10511;SDS011;5304;48.604;2.096;2024-03-08T14:24:05;5.33;;;2.77;;
10511;SDS011;5304;48.604;2.096;2024-03-08T14:26:50;3.50;;;2.87;;
10511;SDS011;5304;48.604;2.096;2024-03-08T14:29:35;9.13;;;3.47;;
10511;SDS011;5304;48.604;2.096;2024-03-08T14:32:24;4.97;;;2.97;;
10511;SDS011;5304;48.604;2.096;2024-03-08T14:35:08;4.73;;;3.27;;
10511;SDS011;5304;48.604;2.096;2024-03-08T14:37:55;5.37;;;3.13;;
10511;SDS011;5304;48.604;2.096;2024-03-08T14:40:41;5.87;;;3.07;;
10511;SDS011;5304;48.604;2.096;2024-03-08T14:43:29;5.20;;;2.87;;
10511;SDS011;5304;48.604;2.096;2024-03-08T14:46:13;2.90;;;2.33;;
10511;SDS011;5304;48.604;2.096;2024-03-08T14:49:01;4.47;;;3.10;;
10511;SDS011;5304;48.604;2.096;2024-03-08T14:51:45;4.93;;;3.10;;
10511;SDS011;5304;48.604;2.096;2024-03-08T14:54:29;3.67;;;3.10;;
10511;SDS011;5304;48.604;2.096;2024-03-08T14:57:13;8.87;;;2.93;;
10511;SDS011;5304;48.604;2.096;2024-03-08T14:59:58;3.00;;;2.70;;
10511;SDS011;5304;48.604;2.096;2024-03-08T15:02:49;5.40;;;2.57;;
10511;SDS011;5304;48.604;2.096;2024-03-08T15:05:37;3.57;;;2.83;;
10511;SDS011;5304;48.604;2.096;2024-03-08T15:08:31;4.03;;;2.90;;
10511;SDS011;5304;48.604;2.096;2024-03-08T15:11:16;4.93;;;2.90;;
10511;SDS011;5304;48.604;2.096;2024-03-08T15:14:05;3.23;;;2.67;;
10511;SDS011;5304;48.604;2.096;2024-03-08T15:16:54;3.70;;;3.17;;
10511;SDS011;5304;48.604;2.096;2024-03-08T15:19:38;4.80;;;2.80;;
10511;SDS011;5304;48.604;2.096;2024-03-08T15:22:23;4.97;;;3.07;;
10511;SDS011;5304;48.604;2.096;2024-03-08T15:25:07;7.03;;;2.70;;
10511;SDS011;5304;48.604;2.096;2024-03-08T15:27:55;4.20;;;2.80;;
10511;SDS011;5304;48.604;2.096;2024-03-08T15:30:41;4.43;;;2.70;;
10511;SDS011;5304;48.604;2.096;2024-03-08T15:33:30;3.93;;;2.33;;
10511;SDS011;5304;48.604;2.096;2024-03-08T15:36:15;2.93;;;2.63;;
10511;SDS011;5304;48.604;2.096;2024-03-08T15:39:00;4.60;;;2.63;;
10511;SDS011;5304;48.604;2.096;2024-03-08T15:41:46;3.47;;;3.17;;
10511;SDS011;5304;48.604;2.096;2024-03-08T15:44:31;4.33;;;2.80;;
10511;SDS011;5304;48.604;2.096;2024-03-08T15:47:15;4.13;;;3.63;;
10511;SDS011;5304;48.604;2.096;2024-03-08T15:49:59;4.30;;;3.07;;
10511;SDS011;5304;48.604;2.096;2024-03-08T15:52:47;4.40;;;2.83;;
10511;SDS011;5304;48.604;2.096;2024-03-08T15:55:31;3.10;;;2.57;;
10511;SDS011;5304;48.604;2.096;2024-03-08T15:58:19;4.70;;;2.83;;
10511;SDS011;5304;48.604;2.096;2024-03-08T16:01:03;6.90;;;2.67;;
10511;SDS011;5304;48.604;2.096;2024-03-08T16:03:51;3.53;;;2.47;;
10511;SDS011;5304;48.604;2.096;2024-03-08T16:06:35;3.37;;;2.20;;
10511;SDS011;5304;48.604;2.096;2024-03-08T16:09:20;5.50;;;2.87;;
10511;SDS011;5304;48.604;2.096;2024-03-08T16:12:08;3.20;;;2.53;;
10511;SDS011;5304;48.604;2.096;2024-03-08T16:14:53;3.00;;;2.50;;
10511;SDS011;5304;48.604;2.096;2024-03-08T16:17:38;4.90;;;2.90;;
10511;SDS011;5304;48.604;2.096;2024-03-08T16:20:23;2.73;;;2.20;;
10511;SDS011;5304;48.604;2.096;2024-03-08T16:23:09;5.87;;;2.00;;
10511;SDS011;5304;48.604;2.096;2024-03-08T16:25:58;4.40;;;2.10;;
10511;SDS011;5304;48.604;2.096;2024-03-08T16:28:42;3.07;;;1.90;;
10511;SDS011;5304;48.604;2.096;2024-03-08T16:31:27;4.40;;;2.20;;
10511;SDS011;5304;48.604;2.096;2024-03-08T16:34:12;2.77;;;1.90;;
10511;SDS011;5304;48.604;2.096;2024-03-08T16:36:59;2.30;;;1.80;;
10511;SDS011;5304;48.604;2.096;2024-03-08T16:39:45;2.53;;;1.93;;
10511;SDS011;5304;48.604;2.096;2024-03-08T16:42:30;3.50;;;2.00;;
10511;SDS011;5304;48.604;2.096;2024-03-08T16:45:14;2.73;;;1.93;;
10511;SDS011;5304;48.604;2.096;2024-03-08T16:47:58;1.70;;;1.60;;
10511;SDS011;5304;48.604;2.096;2024-03-08T16:50:42;1.80;;;1.70;;
10511;SDS011;5304;48.604;2.096;2024-03-08T16:53:29;3.57;;;1.87;;
10511;SDS011;5304;48.604;2.096;2024-03-08T16:56:14;2.13;;;1.67;;
10511;SDS011;5304;48.604;2.096;2024-03-08T16:58:59;2.97;;;1.97;;
10511;SDS011;5304;48.604;2.096;2024-03-08T17:01:47;4.03;;;1.90;;
10511;SDS011;5304;48.604;2.096;2024-03-08T17:04:31;2.70;;;2.00;;
10511;SDS011;5304;48.604;2.096;2024-03-08T17:07:16;3.17;;;1.97;;
10511;SDS011;5304;48.604;2.096;2024-03-08T17:10:00;4.03;;;2.20;;
10511;SDS011;5304;48.604;2.096;2024-03-08T17:12:47;2.70;;;1.93;;
10511;SDS011;5304;48.604;2.096;2024-03-08T17:15:36;2.60;;;1.77;;
10511;SDS011;5304;48.604;2.096;2024-03-08T17:18:21;3.10;;;1.80;;
10511;SDS011;5304;48.604;2.096;2024-03-08T17:21:06;2.80;;;1.80;;
10511;SDS011;5304;48.604;2.096;2024-03-08T17:23:56;2.27;;;2.07;;
10511;SDS011;5304;48.604;2.096;2024-03-08T17:26:41;1.90;;;1.70;;
10511;SDS011;5304;48.604;2.096;2024-03-08T17:29:25;2.47;;;1.93;;
10511;SDS011;5304;48.604;2.096;2024-03-08T17:32:09;7.03;;;2.83;;
10511;SDS011;5304;48.604;2.096;2024-03-08T17:34:54;2.67;;;2.03;;
10511;SDS011;5304;48.604;2.096;2024-03-08T17:37:38;2.33;;;1.80;;
10511;SDS011;5304;48.604;2.096;2024-03-08T17:40:25;2.33;;;2.17;;
10511;SDS011;5304;48.604;2.096;2024-03-08T17:43:11;3.10;;;1.93;;
10511;SDS011;5304;48.604;2.096;2024-03-08T17:45:55;4.57;;;2.27;;
10511;SDS011;5304;48.604;2.096;2024-03-08T17:48:41;3.20;;;2.03;;
10511;SDS011;5304;48.604;2.096;2024-03-08T17:51:25;4.03;;;2.27;;
10511;SDS011;5304;48.604;2.096;2024-03-08T17:54:11;2.60;;;2.40;;
10511;SDS011;5304;48.604;2.096;2024-03-08T17:56:57;3.67;;;2.10;;
10511;SDS011;5304;48.604;2.096;2024-03-08T17:59:43;4.57;;;2.30;;
10511;SDS011;5304;48.604;2.096;2024-03-08T18:02:27;2.80;;;2.47;;
10511;SDS011;5304;48.604;2.096;2024-03-08T18:05:12;3.83;;;2.20;;
10511;SDS011;5304;48.604;2.096;2024-03-08T18:08:00;3.30;;;1.97;;
10511;SDS011;5304;48.604;2.096;2024-03-08T18:10:44;3.57;;;2.20;;
10511;SDS011;5304;48.604;2.096;2024-03-08T18:13:31;2.93;;;2.07;;
10511;SDS011;5304;48.604;2.096;2024-03-08T18:16:17;3.87;;;2.20;;
10511;SDS011;5304;48.604;2.096;2024-03-08T18:19:02;3.93;;;2.07;;
10511;SDS011;5304;48.604;2.096;2024-03-08T18:21:53;2.20;;;2.00;;
10511;SDS011;5304;48.604;2.096;2024-03-08T18:24:38;4.43;;;2.47;;
10511;SDS011;5304;48.604;2.096;2024-03-08T18:27:25;7.00;;;2.40;;
10511;SDS011;5304;48.604;2.096;2024-03-08T18:30:10;6.37;;;2.17;;
10511;SDS011;5304;48.604;2.096;2024-03-08T18:32:58;3.87;;;1.77;;
10511;SDS011;5304;48.604;2.096;2024-03-08T18:35:43;1.73;;;1.63;;
10511;SDS011;5304;48.604;2.096;2024-03-08T18:38:27;2.50;;;1.67;;
10511;SDS011;5304;48.604;2.096;2024-03-08T18:41:11;1.87;;;1.37;;
10511;SDS011;5304;48.604;2.096;2024-03-08T18:43:55;5.63;;;1.10;;
10511;SDS011;5304;48.604;2.096;2024-03-08T18:46:41;1.13;;;1.07;;
10511;SDS011;5304;48.604;2.096;2024-03-08T18:49:27;4.70;;;1.30;;
10511;SDS011;5304;48.604;2.096;2024-03-08T18:52:11;1.20;;;1.20;;
10511;SDS011;5304;48.604;2.096;2024-03-08T18:54:55;1.77;;;1.60;;
10511;SDS011;5304;48.604;2.096;2024-03-08T18:57:40;3.63;;;1.57;;
10511;SDS011;5304;48.604;2.096;2024-03-08T19:00:28;1.03;;;0.93;;
10511;SDS011;5304;48.604;2.096;2024-03-08T19:03:22;2.30;;;1.50;;
10511;SDS011;5304;48.604;2.096;2024-03-08T19:06:07;2.77;;;1.47;;
10511;SDS011;5304;48.604;2.096;2024-03-08T19:08:51;2.00;;;1.23;;
10511;SDS011;5304;48.604;2.096;2024-03-08T19:11:38;3.20;;;2.40;;
10511;SDS011;5304;48.604;2.096;2024-03-08T19:14:24;1.70;;;1.60;;
10511;SDS011;5304;48.604;2.096;2024-03-08T19:17:08;2.73;;;1.97;;
10511;SDS011;5304;48.604;2.096;2024-03-08T19:19:55;2.17;;;1.93;;
10511;SDS011;5304;48.604;2.096;2024-03-08T19:22:40;1.50;;;1.40;;
10511;SDS011;5304;48.604;2.096;2024-03-08T19:25:25;1.40;;;1.30;;
10511;SDS011;5304;48.604;2.096;2024-03-08T19:28:12;1.73;;;1.13;;
10511;SDS011;5304;48.604;2.096;2024-03-08T19:31:05;1.77;;;1.07;;
10511;SDS011;5304;48.604;2.096;2024-03-08T19:33:50;2.50;;;1.07;;
10511;SDS011;5304;48.604;2.096;2024-03-08T19:36:34;1.60;;;1.50;;
10511;SDS011;5304;48.604;2.096;2024-03-08T19:39:19;1.73;;;1.57;;
10511;SDS011;5304;48.604;2.096;2024-03-08T19:42:06;1.43;;;1.17;;
10511;SDS011;5304;48.604;2.096;2024-03-08T19:44:52;1.90;;;1.23;;
10511;SDS011;5304;48.604;2.096;2024-03-08T19:47:36;1.20;;;1.10;;
10511;SDS011;5304;48.604;2.096;2024-03-08T19:50:26;1.70;;;1.60;;
10511;SDS011;5304;48.604;2.096;2024-03-08T19:53:12;2.40;;;1.57;;
10511;SDS011;5304;48.604;2.096;2024-03-08T19:55:59;1.30;;;1.20;;
10511;SDS011;5304;48.604;2.096;2024-03-08T19:58:45;1.40;;;1.30;;
10511;SDS011;5304;48.604;2.096;2024-03-08T20:01:31;1.60;;;1.50;;
10511;SDS011;5304;48.604;2.096;2024-03-08T20:04:15;1.70;;;1.40;;
10511;SDS011;5304;48.604;2.096;2024-03-08T20:07:00;3.53;;;1.20;;
10511;SDS011;5304;48.604;2.096;2024-03-08T20:09:44;3.17;;;1.43;;
10511;SDS011;5304;48.604;2.096;2024-03-08T20:12:28;1.67;;;1.43;;
10511;SDS011;5304;48.604;2.096;2024-03-08T20:15:15;1.53;;;1.43;;
10511;SDS011;5304;48.604;2.096;2024-03-08T20:18:00;1.53;;;1.40;;
10511;SDS011;5304;48.604;2.096;2024-03-08T20:20:46;1.73;;;1.53;;
10511;SDS011;5304;48.604;2.096;2024-03-08T20:23:32;2.60;;;1.77;;
10511;SDS011;5304;48.604;2.096;2024-03-08T20:26:16;3.30;;;1.70;;
10511;SDS011;5304;48.604;2.096;2024-03-08T20:29:03;2.27;;;1.63;;
10511;SDS011;5304;48.604;2.096;2024-03-08T20:31:51;1.40;;;1.30;;
10511;SDS011;5304;48.604;2.096;2024-03-08T20:34:36;1.60;;;1.50;;
10511;SDS011;5304;48.604;2.096;2024-03-08T20:37:21;1.80;;;1.53;;
10511;SDS011;5304;48.604;2.096;2024-03-08T20:40:08;1.23;;;1.13;;
10511;SDS011;5304;48.604;2.096;2024-03-08T20:42:55;2.43;;;1.30;;
10511;SDS011;5304;48.604;2.096;2024-03-08T20:45:40;3.97;;;1.27;;
10511;SDS011;5304;48.604;2.096;2024-03-08T20:48:25;2.43;;;1.33;;
10511;SDS011;5304;48.604;2.096;2024-03-08T20:51:09;2.13;;;1.67;;
10511;SDS011;5304;48.604;2.096;2024-03-08T20:53:55;1.87;;;1.30;;
10511;SDS011;5304;48.604;2.096;2024-03-08T20:56:40;1.40;;;1.30;;
10511;SDS011;5304;48.604;2.096;2024-03-08T20:59:24;2.47;;;1.43;;
10511;SDS011;5304;48.604;2.096;2024-03-08T21:02:09;1.43;;;1.33;;
10511;SDS011;5304;48.604;2.096;2024-03-08T21:04:53;1.73;;;1.53;;
10511;SDS011;5304;48.604;2.096;2024-03-08T21:07:38;3.23;;;1.60;;